Chris Hadfield Airport
CYZR : now visible

Airfield :











YOU CAN JOIN US ON...

 
LOGIN :

Register | Disclaimer

   EN    FR    IT 

 









Legend :    VFR   Marginal VFR   IFR   Intensive IFR   Very Intensive IFR
Visi :
Ceiling :
>= 8 km
>= 3000ft
5 to 8 km
1000 to 3000 ft
1500m to 5 km
500 to 1000 ft
800 to 1500m
200 to 500 ft
< 800m
< 200 ft
Symbols :   Thunderstorms  Fog  Heavy snow  Heavy precipitations  Wind > 20 kt






- Airport Elevation : 594 ft
- IATA code : YZR


CYZR - Chris Hadfield

CURRENT METAR :
  • 091400Z AUTO 19006KT 9SM CLR 29/23 A2993 RMK SLP134 DENSITY ALT 2200FT

EXPIRED METARs :
  • 091300Z AUTO 16005KT 9SM CLR 27/24 A2993 RMK SLP133 DENSITY ALT 2100FT
  • 091231Z AUTO 17005KT 6SM BR CLR 26/24 A2994 RMK SLP136 DENSITY ALT 1900FT
  • 091200Z AUTO 17005KT 150V210 3SM BR FEW080 24/23 A2994 RMK SLP137 DENSITY ALT 1700FT

TAF TAF CYZR
Valid from the 09 at 14:00 until the 10 at 02:00 UTC


091350Z 0914/1002 22005KT P6SM FEW080 SCT140
TEMPO 0914/1002 5SM -SHRA BR OVC040
PROB30 0919/1002 2SM TSRA BR OVC030CB RMK FCST BASED ON AUTO OBS. NXT FCST BY 092000Z
CZYZ FIR / North America



MET'MAP, your aeronautical weather chart ! - Copyright ORBIFLY December 2007 - Disclaimer

ORBIFLY MET'MAP TEAM :

Programming & Development : Alexandra Zaïnal
Concept & original design : Baudouin d'Aumeries
Assistance for programming : Marc-Olivier Méhu
Technical & hardware support : Manuel Goepfert

Contact : metmap@orbifly.com




SOURCES & CREDITS :

   NOAA       Earth
Advisory